Time;durP1;ratioP1;P1;durP2;ratioP2;P2;SDS_P1;SDS_P2;PMS_P1;PMS_P2;Temp;Humidity;BMP_temperature;BMP_pressure;BME280_temperature;BME280_humidity;BME280_pressure;Samples;Min_cycle;Max_cycle;Signal;HPM_P1;HPM_P2
2023/06/09 00:00:47;;;;;;;3.67;2.90;;;;;;;;;;5113652;28;20647;-78
2023/06/09 00:03:16;;;;;;;3.33;3.03;;;;;;;;;;5099455;28;20260;-78
2023/06/09 00:05:44;;;;;;;3.83;3.47;;;;;;;;;;5113195;28;20203;-78
2023/06/09 00:08:11;;;;;;;3.90;3.60;;;;;;;;;;5112747;28;20251;-78
2023/06/09 00:10:38;;;;;;;3.83;2.90;;;;;;;;;;5103068;28;20636;-78
2023/06/09 00:13:05;;;;;;;2.87;2.67;;;;;;;;;;5106389;28;20204;-78
2023/06/09 00:15:32;;;;;;;5.90;3.50;;;;;;;;;;5091686;28;20225;-78
2023/06/09 00:18:02;;;;;;;4.20;2.90;;;;;;;;;;5092770;28;20214;-78
2023/06/09 00:20:33;;;;;;;3.73;3.20;;;;;;;;;;5093090;28;20206;-78
2023/06/09 00:23:01;;;;;;;3.30;3.00;;;;;;;;;;5106229;28;20640;-78
2023/06/09 00:25:28;;;;;;;3.87;3.33;;;;;;;;;;5104193;28;20213;-78
2023/06/09 00:27:55;;;;;;;3.73;3.37;;;;;;;;;;5107366;28;20260;-78
2023/06/09 00:30:22;;;;;;;3.70;3.07;;;;;;;;;;5105336;28;20701;-78
2023/06/09 00:32:49;;;;;;;4.23;3.23;;;;;;;;;;5107199;28;20203;-78
2023/06/09 00:35:16;;;;;;;2.87;2.67;;;;;;;;;;5103967;28;20222;-78
2023/06/09 00:37:42;;;;;;;3.90;3.30;;;;;;;;;;5112477;28;20203;-78
2023/06/09 00:40:12;;;;;;;2.87;2.67;;;;;;;;;;5112940;28;20206;-78
2023/06/09 00:42:38;;;;;;;3.27;2.97;;;;;;;;;;5106309;28;20243;-79
2023/06/09 00:45:06;;;;;;;7.20;2.60;;;;;;;;;;5092575;28;20207;-78
2023/06/09 00:47:33;;;;;;;6.30;3.70;;;;;;;;;;5105459;28;20277;-78
2023/06/09 00:50:00;;;;;;;5.00;3.10;;;;;;;;;;5105433;28;20617;-79
2023/06/09 00:52:27;;;;;;;3.33;3.00;;;;;;;;;;5099038;28;20237;-78
2023/06/09 00:54:54;;;;;;;3.53;2.90;;;;;;;;;;5112132;28;20237;-78
2023/06/09 00:57:23;;;;;;;4.43;3.37;;;;;;;;;;5105852;28;20211;-78
2023/06/09 00:59:50;;;;;;;3.23;2.87;;;;;;;;;;5091722;28;20203;-78
2023/06/09 01:02:17;;;;;;;3.60;3.30;;;;;;;;;;5099119;28;20237;-78
2023/06/09 01:04:49;;;;;;;6.17;4.03;;;;;;;;;;5098386;28;20206;-78
2023/06/09 01:07:24;;;;;;;2.60;2.40;;;;;;;;;;5103263;28;20286;-79
2023/06/09 01:09:57;;;;;;;3.13;2.60;;;;;;;;;;5094630;28;20200;-78
2023/06/09 01:12:34;;;;;;;6.50;3.17;;;;;;;;;;5112172;28;20229;-79
2023/06/09 01:15:05;;;;;;;3.03;2.70;;;;;;;;;;5106157;28;20227;-79
2023/06/09 01:17:33;;;;;;;3.43;3.13;;;;;;;;;;5105004;28;20236;-78
2023/06/09 01:20:05;;;;;;;6.67;3.50;;;;;;;;;;5091504;28;20569;-79
2023/06/09 01:22:38;;;;;;;2.80;2.60;;;;;;;;;;5104718;28;20658;-79
2023/06/09 01:25:25;;;;;;;3.57;2.77;;;;;;;;;;5099936;28;20632;-79
2023/06/09 01:27:52;;;;;;;3.47;2.97;;;;;;;;;;5110970;28;20239;-78
2023/06/09 01:30:20;;;;;;;3.53;3.23;;;;;;;;;;5112005;28;20260;-78
2023/06/09 01:32:48;;;;;;;3.30;3.00;;;;;;;;;;5111147;28;20206;-78
2023/06/09 01:35:15;;;;;;;3.00;2.80;;;;;;;;;;5111353;28;20698;-78
2023/06/09 01:37:42;;;;;;;2.97;2.77;;;;;;;;;;5098195;28;20266;-79
2023/06/09 01:40:09;;;;;;;2.87;2.63;;;;;;;;;;5098878;28;20205;-79
2023/06/09 01:42:38;;;;;;;3.83;3.13;;;;;;;;;;5111153;28;20203;-79
2023/06/09 01:45:05;;;;;;;2.83;2.63;;;;;;;;;;5098061;28;20284;-79
2023/06/09 01:47:32;;;;;;;3.30;2.97;;;;;;;;;;5097453;28;20236;-79
2023/06/09 01:50:02;;;;;;;3.60;3.30;;;;;;;;;;5098328;28;20202;-78
2023/06/09 01:52:35;;;;;;;3.00;2.80;;;;;;;;;;5091072;28;20197;-79
2023/06/09 01:55:08;;;;;;;3.60;3.30;;;;;;;;;;5104337;28;20263;-79
2023/06/09 01:57:42;;;;;;;3.83;2.63;;;;;;;;;;5100415;28;20292;-79
2023/06/09 02:00:10;;;;;;;4.37;3.30;;;;;;;;;;5097394;28;20626;-79
2023/06/09 02:02:39;;;;;;;3.70;3.40;;;;;;;;;;5110821;28;20199;-79
2023/06/09 02:05:07;;;;;;;2.60;2.40;;;;;;;;;;5097473;28;20201;-79
2023/06/09 02:07:34;;;;;;;3.63;2.87;;;;;;;;;;5100077;28;20197;-79
2023/06/09 02:10:02;;;;;;;4.93;3.00;;;;;;;;;;5104819;28;20202;-79
2023/06/09 02:12:32;;;;;;;4.47;2.63;;;;;;;;;;5102356;28;20665;-79
2023/06/09 02:15:00;;;;;;;5.20;2.90;;;;;;;;;;5111176;28;20202;-79
2023/06/09 02:17:27;;;;;;;3.60;3.00;;;;;;;;;;5098492;28;20561;-79
2023/06/09 02:19:54;;;;;;;3.90;2.70;;;;;;;;;;5104472;28;20197;-79
2023/06/09 02:22:21;;;;;;;4.07;3.07;;;;;;;;;;5090782;28;20197;-79
2023/06/09 02:24:48;;;;;;;2.97;2.73;;;;;;;;;;5109769;28;20202;-79
2023/06/09 02:27:14;;;;;;;3.60;3.30;;;;;;;;;;5098161;28;20202;-79
2023/06/09 02:29:41;;;;;;;3.30;3.03;;;;;;;;;;5090583;28;20555;-79
2023/06/09 02:32:10;;;;;;;3.27;2.97;;;;;;;;;;5090785;28;20194;-79
2023/06/09 02:34:37;;;;;;;3.93;3.50;;;;;;;;;;5090870;28;20833;-79
2023/06/09 02:37:07;;;;;;;5.73;3.30;;;;;;;;;;5103801;28;20232;-79
2023/06/09 02:39:34;;;;;;;3.20;2.90;;;;;;;;;;5103382;28;20206;-79
2023/06/09 02:42:00;;;;;;;3.30;3.00;;;;;;;;;;5114022;28;20578;-79
2023/06/09 02:44:28;;;;;;;3.57;3.23;;;;;;;;;;5113283;28;20204;-79
2023/06/09 02:46:55;;;;;;;4.53;3.17;;;;;;;;;;5102467;28;20229;-79
2023/06/09 02:49:23;;;;;;;3.20;2.90;;;;;;;;;;5113149;28;20253;-79
2023/06/09 02:51:50;;;;;;;6.43;3.33;;;;;;;;;;5102878;28;20196;-79
2023/06/09 02:54:17;;;;;;;4.87;3.80;;;;;;;;;;5101375;28;20212;-79
2023/06/09 02:56:43;;;;;;;3.37;3.07;;;;;;;;;;5105467;28;20238;-79
2023/06/09 02:59:10;;;;;;;3.40;3.20;;;;;;;;;;5109532;28;20212;-79
2023/06/09 03:01:38;;;;;;;6.60;4.00;;;;;;;;;;5114934;28;20211;-79
2023/06/09 03:04:07;;;;;;;10.30;5.97;;;;;;;;;;5114109;28;20201;-79
2023/06/09 03:06:36;;;;;;;10.43;9.43;;;;;;;;;;5114199;28;20629;-79
2023/06/09 03:09:06;;;;;;;6.07;5.33;;;;;;;;;;5100674;28;20193;-80
2023/06/09 03:11:33;;;;;;;5.17;4.47;;;;;;;;;;5103538;28;20210;-80
2023/06/09 03:14:01;;;;;;;4.73;3.43;;;;;;;;;;5107601;28;20198;-79
2023/06/09 03:16:28;;;;;;;4.50;4.10;;;;;;;;;;5098380;28;20219;-79
2023/06/09 03:18:55;;;;;;;3.43;3.13;;;;;;;;;;5102960;28;20200;-79
2023/06/09 03:21:24;;;;;;;3.93;3.43;;;;;;;;;;5098555;28;20199;-79
2023/06/09 03:23:52;;;;;;;4.37;3.87;;;;;;;;;;5111008;28;20230;-79
2023/06/09 03:26:19;;;;;;;4.70;3.90;;;;;;;;;;5114009;28;20269;-78
2023/06/09 03:28:45;;;;;;;4.30;3.40;;;;;;;;;;5099864;28;20206;-78
2023/06/09 03:31:13;;;;;;;4.03;3.23;;;;;;;;;;5113424;28;20214;-82
2023/06/09 03:33:40;;;;;;;6.87;3.43;;;;;;;;;;5109303;28;20325;-81
2023/06/09 03:36:08;;;;;;;3.50;3.10;;;;;;;;;;5104695;28;20234;-81
2023/06/09 03:38:35;;;;;;;4.17;3.77;;;;;;;;;;5100127;28;20278;-81
2023/06/09 03:41:06;;;;;;;4.60;3.63;;;;;;;;;;5113298;28;20697;-81
2023/06/09 03:43:33;;;;;;;4.07;3.33;;;;;;;;;;5113837;28;20287;-82
2023/06/09 03:45:59;;;;;;;3.87;3.57;;;;;;;;;;5113791;28;20204;-82
2023/06/09 03:48:26;;;;;;;3.73;3.43;;;;;;;;;;5099025;28;20229;-81
2023/06/09 03:50:53;;;;;;;4.43;3.67;;;;;;;;;;5100779;28;20206;-82
2023/06/09 03:53:20;;;;;;;3.80;3.50;;;;;;;;;;5111961;28;21048;-81
2023/06/09 03:55:46;;;;;;;3.60;3.33;;;;;;;;;;5100995;28;20201;-82
2023/06/09 03:58:15;;;;;;;4.13;3.73;;;;;;;;;;5106780;28;20216;-81
2023/06/09 04:00:42;;;;;;;3.70;3.40;;;;;;;;;;5092323;28;20201;-81
2023/06/09 04:03:10;;;;;;;5.10;4.00;;;;;;;;;;5106288;28;20288;-81
2023/06/09 04:05:37;;;;;;;3.93;3.60;;;;;;;;;;5093124;28;20288;-80
2023/06/09 04:08:05;;;;;;;6.63;3.80;;;;;;;;;;5100483;28;20261;-82
2023/06/09 04:10:31;;;;;;;3.63;3.17;;;;;;;;;;5112764;28;20201;-81
2023/06/09 04:12:58;;;;;;;4.17;3.83;;;;;;;;;;5101598;28;20208;-82
2023/06/09 04:15:26;;;;;;;4.53;3.83;;;;;;;;;;5101114;28;20700;-82
2023/06/09 04:17:53;;;;;;;3.90;3.60;;;;;;;;;;5095271;28;20720;-82
2023/06/09 04:20:22;;;;;;;6.27;3.77;;;;;;;;;;5103297;28;20259;-82
2023/06/09 04:22:51;;;;;;;5.77;3.77;;;;;;;;;;5105791;28;20692;-82
2023/06/09 04:25:19;;;;;;;4.63;4.23;;;;;;;;;;5102829;28;20207;-82
2023/06/09 04:27:48;;;;;;;3.90;3.57;;;;;;;;;;5094950;28;20201;-82
2023/06/09 04:30:15;;;;;;;5.40;3.87;;;;;;;;;;5092849;28;20309;-82
2023/06/09 04:32:43;;;;;;;3.80;2.97;;;;;;;;;;5092424;28;20205;-82
2023/06/09 04:35:09;;;;;;;3.80;3.20;;;;;;;;;;5104235;28;20694;-82
2023/06/09 04:37:38;;;;;;;3.60;3.30;;;;;;;;;;5107977;28;20275;-82
2023/06/09 04:40:09;;;;;;;3.60;3.40;;;;;;;;;;5104477;28;20292;-82
2023/06/09 04:42:35;;;;;;;5.03;3.40;;;;;;;;;;5098658;28;20203;-81
2023/06/09 04:45:03;;;;;;;3.10;2.80;;;;;;;;;;5100167;28;20268;-83
2023/06/09 04:47:30;;;;;;;3.33;3.03;;;;;;;;;;5111715;28;20226;-80
2023/06/09 04:49:58;;;;;;;7.83;3.73;;;;;;;;;;5099720;28;20207;-80
2023/06/09 04:52:25;;;;;;;4.40;3.37;;;;;;;;;;5105114;28;20201;-80
2023/06/09 04:54:52;;;;;;;3.77;3.37;;;;;;;;;;5105612;28;20209;-80
2023/06/09 04:57:19;;;;;;;4.03;3.60;;;;;;;;;;5099354;28;20671;-80
2023/06/09 04:59:46;;;;;;;4.73;3.40;;;;;;;;;;5112501;28;20565;-81
2023/06/09 05:02:13;;;;;;;3.00;2.80;;;;;;;;;;5110109;28;20206;-80
2023/06/09 05:04:40;;;;;;;3.77;3.47;;;;;;;;;;5108626;28;20767;-80
2023/06/09 05:07:09;;;;;;;4.27;3.60;;;;;;;;;;5105928;28;20273;-80
2023/06/09 05:09:36;;;;;;;5.47;3.67;;;;;;;;;;5101243;28;20692;-80
2023/06/09 05:12:06;;;;;;;8.27;4.03;;;;;;;;;;5108730;28;20249;-80
2023/06/09 05:14:33;;;;;;;3.77;3.37;;;;;;;;;;5100680;28;20228;-80
2023/06/09 05:17:02;;;;;;;4.67;4.13;;;;;;;;;;5100567;28;20218;-79
2023/06/09 05:19:29;;;;;;;5.73;3.37;;;;;;;;;;5098148;28;20287;-80
2023/06/09 05:21:56;;;;;;;4.20;3.30;;;;;;;;;;5102064;28;20215;-80
2023/06/09 05:24:24;;;;;;;3.70;3.37;;;;;;;;;;5091813;28;20193;-81
2023/06/09 05:26:51;;;;;;;5.60;3.30;;;;;;;;;;5101852;28;20211;-81
2023/06/09 05:29:18;;;;;;;4.03;3.67;;;;;;;;;;5094665;28;20249;-81
2023/06/09 05:31:44;;;;;;;4.20;3.47;;;;;;;;;;5101905;28;20618;-81
2023/06/09 05:34:12;;;;;;;5.43;3.50;;;;;;;;;;5111844;28;20200;-81
2023/06/09 05:36:38;;;;;;;3.67;3.37;;;;;;;;;;5111328;28;20233;-81
2023/06/09 05:39:06;;;;;;;6.17;4.00;;;;;;;;;;5111698;28;20207;-81
2023/06/09 05:41:34;;;;;;;3.47;3.17;;;;;;;;;;5111499;28;20207;-81
2023/06/09 05:44:01;;;;;;;6.37;3.20;;;;;;;;;;5092086;28;20620;-81
2023/06/09 05:46:28;;;;;;;3.20;2.90;;;;;;;;;;5089933;28;20215;-81
2023/06/09 05:48:55;;;;;;;3.67;2.77;;;;;;;;;;5104015;28;20200;-80
2023/06/09 05:51:23;;;;;;;5.80;3.37;;;;;;;;;;5102331;28;20199;-82
2023/06/09 05:53:50;;;;;;;4.03;3.20;;;;;;;;;;5096217;28;20287;-81
2023/06/09 05:56:19;;;;;;;7.70;3.50;;;;;;;;;;5110250;28;20210;-81
2023/06/09 05:58:47;;;;;;;5.83;3.47;;;;;;;;;;5097617;28;20199;-81
2023/06/09 06:01:15;;;;;;;3.10;2.60;;;;;;;;;;5097933;28;20271;-81
2023/06/09 06:03:42;;;;;;;3.50;3.20;;;;;;;;;;5090935;28;20283;-81
2023/06/09 06:06:10;;;;;;;3.70;3.27;;;;;;;;;;5090842;28;20592;-81
2023/06/09 06:08:36;;;;;;;5.67;3.50;;;;;;;;;;5096572;28;20279;-81
2023/06/09 06:11:03;;;;;;;3.30;2.93;;;;;;;;;;5094480;28;20911;-80
2023/06/09 06:13:30;;;;;;;3.50;3.20;;;;;;;;;;5088396;28;20219;-81
2023/06/09 06:16:00;;;;;;;3.00;2.70;;;;;;;;;;5104119;28;20715;-81
2023/06/09 06:18:27;;;;;;;3.70;3.40;;;;;;;;;;5089967;28;20566;-81
2023/06/09 06:20:54;;;;;;;2.90;2.70;;;;;;;;;;5090238;28;20204;-81
2023/06/09 06:23:20;;;;;;;4.10;3.13;;;;;;;;;;5097988;28;20747;-81
2023/06/09 06:25:47;;;;;;;4.17;2.97;;;;;;;;;;5096517;28;20210;-80
2023/06/09 06:28:14;;;;;;;3.30;3.00;;;;;;;;;;5098302;28;20204;-81
2023/06/09 06:30:42;;;;;;;7.40;3.17;;;;;;;;;;5097214;28;20200;-81
2023/06/09 06:33:10;;;;;;;3.50;3.20;;;;;;;;;;5111133;28;20208;-81
2023/06/09 06:35:37;;;;;;;5.00;2.83;;;;;;;;;;5108746;28;20257;-81
2023/06/09 06:38:04;;;;;;;3.57;3.27;;;;;;;;;;5099160;28;20615;-81
2023/06/09 06:40:31;;;;;;;3.23;2.93;;;;;;;;;;5097074;28;20200;-81
2023/06/09 06:42:57;;;;;;;5.30;2.80;;;;;;;;;;5100924;28;20200;-81
2023/06/09 06:45:27;;;;;;;8.40;4.73;;;;;;;;;;5100739;28;20670;-81
2023/06/09 06:47:54;;;;;;;6.60;4.20;;;;;;;;;;5107527;28;20223;-81
2023/06/09 06:50:22;;;;;;;4.07;2.90;;;;;;;;;;5108176;28;20631;-78
2023/06/09 06:52:49;;;;;;;5.43;3.33;;;;;;;;;;5110517;28;20227;-78
2023/06/09 06:55:16;;;;;;;9.43;6.73;;;;;;;;;;5094846;28;20208;-78
2023/06/09 06:57:42;;;;;;;4.53;4.13;;;;;;;;;;5109903;28;20219;-78
2023/06/09 07:00:14;;;;;;;3.77;3.47;;;;;;;;;;5097120;28;20561;-79
2023/06/09 07:02:43;;;;;;;4.93;3.27;;;;;;;;;;5110921;28;20211;-78
2023/06/09 07:05:10;;;;;;;3.33;3.03;;;;;;;;;;5096427;28;20681;-78
2023/06/09 07:07:38;;;;;;;5.93;4.33;;;;;;;;;;5097938;28;20196;-77
2023/06/09 07:10:07;;;;;;;6.07;4.07;;;;;;;;;;5104118;28;20212;-77
2023/06/09 07:12:34;;;;;;;4.97;4.23;;;;;;;;;;5103169;28;20208;-77
2023/06/09 07:15:01;;;;;;;5.23;4.00;;;;;;;;;;5091392;28;20551;-78
2023/06/09 07:17:28;;;;;;;6.00;3.63;;;;;;;;;;5102413;28;20230;-79
2023/06/09 07:19:55;;;;;;;5.23;3.50;;;;;;;;;;5096828;28;20199;-78
2023/06/09 07:22:21;;;;;;;6.13;3.53;;;;;;;;;;5110433;28;20203;-79
2023/06/09 07:24:50;;;;;;;5.43;3.37;;;;;;;;;;5092338;28;20196;-78
2023/06/09 07:27:16;;;;;;;8.03;3.50;;;;;;;;;;5093145;28;20699;-78
2023/06/09 07:29:43;;;;;;;7.60;3.43;;;;;;;;;;5093589;28;20196;-79
2023/06/09 07:32:10;;;;;;;3.87;3.53;;;;;;;;;;5107287;28;20207;-79
2023/06/09 07:34:38;;;;;;;4.93;3.37;;;;;;;;;;5100808;28;20196;-78
2023/06/09 07:37:05;;;;;;;3.87;3.40;;;;;;;;;;5110781;28;20230;-78
2023/06/09 07:39:32;;;;;;;5.13;2.97;;;;;;;;;;5099291;28;20202;-78
2023/06/09 07:42:00;;;;;;;4.10;3.17;;;;;;;;;;5113656;28;20253;-78
2023/06/09 07:44:30;;;;;;;5.63;2.83;;;;;;;;;;5113561;28;20203;-78
2023/06/09 07:46:56;;;;;;;6.33;2.70;;;;;;;;;;5099838;28;20232;-78
2023/06/09 07:49:23;;;;;;;3.30;2.27;;;;;;;;;;5112363;28;20833;-79
2023/06/09 07:51:50;;;;;;;5.10;3.00;;;;;;;;;;5112240;28;20203;-78
2023/06/09 07:54:17;;;;;;;3.60;2.63;;;;;;;;;;5113493;28;20218;-78
2023/06/09 07:56:48;;;;;;;3.17;2.60;;;;;;;;;;5099959;28;20212;-78
2023/06/09 07:59:16;;;;;;;3.10;2.63;;;;;;;;;;5113174;28;20739;-78
2023/06/09 08:01:44;;;;;;;3.33;2.60;;;;;;;;;;5112036;28;20734;-78
2023/06/09 08:04:11;;;;;;;3.37;2.50;;;;;;;;;;5101337;28;20670;-79
2023/06/09 08:06:37;;;;;;;4.30;2.53;;;;;;;;;;5105830;28;20296;-78
2023/06/09 08:09:04;;;;;;;2.67;2.47;;;;;;;;;;5110935;28;20203;-78
2023/06/09 08:11:31;;;;;;;2.10;1.90;;;;;;;;;;5102646;28;20261;-78
2023/06/09 08:13:58;;;;;;;3.43;2.37;;;;;;;;;;5098879;28;20203;-78
2023/06/09 08:16:26;;;;;;;5.43;2.40;;;;;;;;;;5112902;28;20279;-78
2023/06/09 08:18:53;;;;;;;4.70;2.30;;;;;;;;;;5102040;28;20227;-78
2023/06/09 08:21:20;;;;;;;2.47;2.27;;;;;;;;;;5106584;28;20265;-78
2023/06/09 08:23:46;;;;;;;4.40;2.47;;;;;;;;;;5104366;28;20612;-79
2023/06/09 08:26:13;;;;;;;2.97;2.70;;;;;;;;;;5099194;28;20199;-78
2023/06/09 08:28:40;;;;;;;5.60;3.00;;;;;;;;;;5113360;28;20204;-78
2023/06/09 08:31:08;;;;;;;4.23;2.87;;;;;;;;;;5097715;28;20603;-78
2023/06/09 08:33:37;;;;;;;2.97;2.77;;;;;;;;;;5104693;28;20207;-78
2023/06/09 08:36:04;;;;;;;5.10;2.50;;;;;;;;;;5091865;28;20724;-78
2023/06/09 08:38:32;;;;;;;2.87;2.60;;;;;;;;;;5090546;28;20289;-79
2023/06/09 08:41:04;;;;;;;2.63;2.43;;;;;;;;;;5112308;28;20196;-78
2023/06/09 08:43:32;;;;;;;4.47;2.20;;;;;;;;;;5098409;28;20227;-78
2023/06/09 08:45:58;;;;;;;2.80;2.60;;;;;;;;;;5099128;28;20207;-77
2023/06/09 08:48:30;;;;;;;6.33;2.80;;;;;;;;;;5098725;28;20220;-77
2023/06/09 08:50:59;;;;;;;3.63;2.67;;;;;;;;;;5104669;28;20204;-77
2023/06/09 08:53:25;;;;;;;3.23;2.60;;;;;;;;;;5106522;28;20216;-78
2023/06/09 08:55:52;;;;;;;3.37;3.03;;;;;;;;;;5104316;28;20200;-78
2023/06/09 08:58:19;;;;;;;4.00;2.47;;;;;;;;;;5091696;28;20231;-77
2023/06/09 09:00:47;;;;;;;4.20;3.37;;;;;;;;;;5092236;28;20757;-78
2023/06/09 09:03:14;;;;;;;6.60;3.27;;;;;;;;;;5104468;28;20200;-78
2023/06/09 09:05:40;;;;;;;4.33;3.30;;;;;;;;;;5098859;28;20199;-77
2023/06/09 09:08:09;;;;;;;3.77;2.50;;;;;;;;;;5098045;28;20658;-77
2023/06/09 09:10:38;;;;;;;4.90;2.50;;;;;;;;;;5103212;28;20196;-77
2023/06/09 09:13:08;;;;;;;4.97;2.57;;;;;;;;;;5105148;28;20200;-77
2023/06/09 09:15:35;;;;;;;2.80;2.60;;;;;;;;;;5091937;28;20211;-77
2023/06/09 09:18:02;;;;;;;3.50;2.77;;;;;;;;;;5108725;28;20777;-77
2023/06/09 09:20:38;;;;;;;2.80;2.53;;;;;;;;;;5112174;28;20288;-77
2023/06/09 09:23:05;;;;;;;3.10;2.80;;;;;;;;;;5097714;28;20218;-77
2023/06/09 09:25:33;;;;;;;3.17;2.37;;;;;;;;;;5099304;28;20561;-77
2023/06/09 09:28:02;;;;;;;3.00;2.80;;;;;;;;;;5105276;28;20200;-77
2023/06/09 09:30:43;;;;;;;4.37;2.87;;;;;;;;;;5104153;28;20199;-77
2023/06/09 09:33:10;;;;;;;3.53;2.97;;;;;;;;;;5091555;28;20265;-78
2023/06/09 09:35:38;;;;;;;5.40;2.77;;;;;;;;;;5106842;28;20203;-77
2023/06/09 09:38:06;;;;;;;4.03;2.97;;;;;;;;;;5102968;28;20326;-77
2023/06/09 09:40:34;;;;;;;7.17;2.87;;;;;;;;;;5104763;28;20195;-77
2023/06/09 09:43:02;;;;;;;2.80;2.57;;;;;;;;;;5091267;28;20204;-78
2023/06/09 09:45:37;;;;;;;3.93;2.67;;;;;;;;;;5107208;28;20290;-77
2023/06/09 09:48:14;;;;;;;3.50;2.50;;;;;;;;;;5100241;28;20306;-77
2023/06/09 09:50:43;;;;;;;5.63;3.53;;;;;;;;;;5104999;28;20253;-77
2023/06/09 09:53:10;;;;;;;3.13;2.53;;;;;;;;;;5091468;28;20287;-77
2023/06/09 09:55:39;;;;;;;2.67;2.47;;;;;;;;;;5097529;28;20195;-77
2023/06/09 09:58:07;;;;;;;5.60;3.33;;;;;;;;;;5097588;28;20273;-77
2023/06/09 10:00:35;;;;;;;3.77;2.70;;;;;;;;;;5091102;28;20693;-77
2023/06/09 10:03:06;;;;;;;2.70;2.50;;;;;;;;;;5091286;28;20212;-78
2023/06/09 10:05:36;;;;;;;2.97;2.57;;;;;;;;;;5111161;28;20214;-77
2023/06/09 10:08:05;;;;;;;5.63;2.77;;;;;;;;;;5111487;28;20207;-77
2023/06/09 10:10:32;;;;;;;3.53;3.07;;;;;;;;;;5102351;28;20303;-77
2023/06/09 10:13:03;;;;;;;3.73;3.43;;;;;;;;;;5104366;28;20566;-77
2023/06/09 10:15:30;;;;;;;4.07;2.60;;;;;;;;;;5091241;28;20624;-78
2023/06/09 10:17:57;;;;;;;4.07;2.80;;;;;;;;;;5104104;28;20783;-77
2023/06/09 10:20:24;;;;;;;5.73;3.03;;;;;;;;;;5091138;28;20207;-77
2023/06/09 10:22:52;;;;;;;3.17;2.87;;;;;;;;;;5107527;28;20195;-77
2023/06/09 10:25:20;;;;;;;4.93;3.63;;;;;;;;;;5100803;28;20226;-78
2023/06/09 10:27:47;;;;;;;22.70;12.90;;;;;;;;;;5108021;28;20233;-78
2023/06/09 10:30:17;;;;;;;8.13;6.70;;;;;;;;;;5100012;28;20204;-77
2023/06/09 10:32:47;;;;;;;4.47;3.20;;;;;;;;;;5095897;28;20191;-77
2023/06/09 10:35:17;;;;;;;4.20;3.20;;;;;;;;;;5111292;28;20203;-77
2023/06/09 10:37:46;;;;;;;6.27;3.63;;;;;;;;;;5097398;28;20191;-77
2023/06/09 10:40:20;;;;;;;9.43;4.13;;;;;;;;;;5098216;28;20230;-77
2023/06/09 10:42:58;;;;;;;6.67;3.87;;;;;;;;;;5098185;28;20215;-77
2023/06/09 10:45:49;;;;;;;7.97;5.17;;;;;;;;;;5108409;28;20199;-77
2023/06/09 10:48:42;;;;;;;4.03;3.23;;;;;;;;;;5103307;28;20228;-77
2023/06/09 10:51:40;;;;;;;4.17;3.30;;;;;;;;;;5111556;28;20203;-77
2023/06/09 10:54:23;;;;;;;5.90;4.43;;;;;;;;;;5090911;28;20226;-77
2023/06/09 10:56:53;;;;;;;6.83;3.90;;;;;;;;;;5093602;28;20673;-77
2023/06/09 10:59:56;;;;;;;3.73;3.10;;;;;;;;;;5102649;28;20293;-77
2023/06/09 11:02:24;;;;;;;4.53;4.00;;;;;;;;;;5093553;28;20252;-77
2023/06/09 11:04:52;;;;;;;5.90;3.40;;;;;;;;;;5111683;28;20208;-77
2023/06/09 11:07:20;;;;;;;6.20;3.50;;;;;;;;;;5104232;28;20196;-77
2023/06/09 11:10:35;;;;;;;4.43;4.03;;;;;;;;;;5111256;28;20196;-77
2023/06/09 11:13:03;;;;;;;2.97;2.77;;;;;;;;;;5110723;28;20203;-77
2023/06/09 11:16:00;;;;;;;3.43;2.97;;;;;;;;;;5104353;28;20206;-77
2023/06/09 11:18:30;;;;;;;4.90;4.37;;;;;;;;;;5093771;28;20255;-77
2023/06/09 11:21:23;;;;;;;3.50;2.80;;;;;;;;;;5109015;28;20227;-77
2023/06/09 11:23:57;;;;;;;3.77;3.47;;;;;;;;;;5114306;28;20199;-77
2023/06/09 11:26:24;;;;;;;6.03;3.28;;;;;;;;;;5094831;28;20218;-77
2023/06/09 11:28:51;;;;;;;4.13;3.40;;;;;;;;;;5106895;28;20232;-77
2023/06/09 11:31:18;;;;;;;3.17;2.83;;;;;;;;;;5094107;28;20758;-77
2023/06/09 11:33:48;;;;;;;4.47;3.20;;;;;;;;;;5094104;28;20314;-77
2023/06/09 11:36:19;;;;;;;4.43;3.87;;;;;;;;;;5114504;28;20212;-77
2023/06/09 11:38:47;;;;;;;5.07;4.57;;;;;;;;;;5100072;28;20234;-77
2023/06/09 11:41:15;;;;;;;4.10;3.30;;;;;;;;;;5114322;28;20260;-77
2023/06/09 11:43:50;;;;;;;10.47;4.50;;;;;;;;;;5099880;28;20207;-77
2023/06/09 11:46:18;;;;;;;5.07;4.20;;;;;;;;;;5114316;28;20260;-78
2023/06/09 11:49:08;;;;;;;5.10;3.13;;;;;;;;;;5113724;28;20228;-77
2023/06/09 11:52:06;;;;;;;3.45;3.03;;;;;;;;;;5099848;28;20201;-78
2023/06/09 11:54:54;;;;;;;3.78;3.47;;;;;;;;;;5102347;28;20218;-78
2023/06/09 11:57:22;;;;;;;4.30;3.47;;;;;;;;;;5096223;28;20735;-77
2023/06/09 11:59:52;;;;;;;3.75;2.97;;;;;;;;;;5111766;28;20608;-77
2023/06/09 12:02:20;;;;;;;4.05;3.65;;;;;;;;;;5102395;28;20195;-77
2023/06/09 12:04:49;;;;;;;4.38;2.97;;;;;;;;;;5099696;28;20324;-77
2023/06/09 12:07:17;;;;;;;3.80;2.85;;;;;;;;;;5113768;28;20199;-77
2023/06/09 12:09:44;;;;;;;6.45;4.40;;;;;;;;;;5095601;28;20748;-77
2023/06/09 12:12:12;;;;;;;4.22;3.85;;;;;;;;;;5092852;28;20200;-77
2023/06/09 12:14:39;;;;;;;5.38;4.38;;;;;;;;;;5107701;28;20214;-77
2023/06/09 12:17:06;;;;;;;6.97;5.03;;;;;;;;;;5093067;28;20232;-77
2023/06/09 12:19:33;;;;;;;4.13;3.27;;;;;;;;;;5109425;28;20219;-77
2023/06/09 12:22:03;;;;;;;2.97;2.77;;;;;;;;;;5103383;28;20196;-77
2023/06/09 12:24:31;;;;;;;8.10;7.28;;;;;;;;;;5096256;28;20203;-77
2023/06/09 12:26:58;;;;;;;10.17;4.90;;;;;;;;;;5113155;28;20257;-77
2023/06/09 12:29:28;;;;;;;4.77;4.23;;;;;;;;;;5094944;28;20724;-77
2023/06/09 12:31:57;;;;;;;4.07;3.73;;;;;;;;;;5103953;28;20192;-77
2023/06/09 12:34:25;;;;;;;5.70;4.87;;;;;;;;;;5108242;28;20204;-77
2023/06/09 12:36:52;;;;;;;5.17;3.60;;;;;;;;;;5092304;28;20200;-79
2023/06/09 12:39:22;;;;;;;3.53;3.23;;;;;;;;;;5106225;28;20224;-77
2023/06/09 12:41:49;;;;;;;3.43;3.13;;;;;;;;;;5092686;28;20287;-77
2023/06/09 12:44:23;;;;;;;10.17;3.87;;;;;;;;;;5105761;28;20265;-77
2023/06/09 12:46:55;;;;;;;7.73;6.93;;;;;;;;;;5092710;28;20624;-77
2023/06/09 12:49:32;;;;;;;4.13;3.73;;;;;;;;;;5104662;28;20239;-77
2023/06/09 12:52:01;;;;;;;3.33;3.03;;;;;;;;;;5108467;28;20199;-77
2023/06/09 12:54:29;;;;;;;8.30;6.00;;;;;;;;;;5102375;28;20671;-77
2023/06/09 12:56:56;;;;;;;9.57;6.50;;;;;;;;;;5108867;28;20188;-77
2023/06/09 12:59:24;;;;;;;19.70;9.52;;;;;;;;;;5101946;28;20228;-77
2023/06/09 13:01:52;;;;;;;14.30;9.95;;;;;;;;;;5105167;28;20751;-77
2023/06/09 13:04:19;;;;;;;14.18;9.13;;;;;;;;;;5102919;28;20249;-77
2023/06/09 13:06:46;;;;;;;33.80;17.33;;;;;;;;;;5111554;28;20195;-77
2023/06/09 13:09:13;;;;;;;9.63;5.55;;;;;;;;;;5101056;28;20211;-77
2023/06/09 13:11:41;;;;;;;6.70;3.47;;;;;;;;;;5105431;28;20245;-77
2023/06/09 13:14:07;;;;;;;7.07;4.47;;;;;;;;;;5103617;28;20245;-77
2023/06/09 13:16:35;;;;;;;23.55;14.00;;;;;;;;;;5092965;28;20659;-77
2023/06/09 13:19:01;;;;;;;19.33;10.90;;;;;;;;;;5091817;28;20231;-77
2023/06/09 13:21:30;;;;;;;12.23;9.77;;;;;;;;;;5091321;28;20329;-77
2023/06/09 13:23:59;;;;;;;10.45;6.93;;;;;;;;;;5091759;28;20235;-77
2023/06/09 13:26:27;;;;;;;9.07;5.88;;;;;;;;;;5091297;28;20684;-78
2023/06/09 13:28:55;;;;;;;10.32;4.65;;;;;;;;;;5105103;28;20265;-77
2023/06/09 13:31:22;;;;;;;10.10;7.28;;;;;;;;;;5099053;28;20677;-77
2023/06/09 13:33:49;;;;;;;3.77;3.43;;;;;;;;;;5111479;28;20669;-77
2023/06/09 13:36:16;;;;;;;6.90;3.63;;;;;;;;;;5112127;28;20204;-77
2023/06/09 13:38:42;;;;;;;7.60;6.10;;;;;;;;;;5097529;28;20200;-77
2023/06/09 13:41:09;;;;;;;5.95;3.50;;;;;;;;;;5111728;28;20705;-77
2023/06/09 13:43:36;;;;;;;3.47;2.97;;;;;;;;;;5096111;28;20678;-77
2023/06/09 13:46:04;;;;;;;3.22;2.92;;;;;;;;;;5091522;28;20204;-77
2023/06/09 13:48:31;;;;;;;3.92;3.47;;;;;;;;;;5104984;28;20292;-76
2023/06/09 13:50:59;;;;;;;4.43;3.63;;;;;;;;;;5091103;28;20197;-77
2023/06/09 13:53:25;;;;;;;4.88;4.22;;;;;;;;;;5104756;28;20226;-77
2023/06/09 13:55:52;;;;;;;5.35;3.50;;;;;;;;;;5100660;28;20670;-76
2023/06/09 13:58:19;;;;;;;4.93;3.35;;;;;;;;;;5097306;28;20204;-76
2023/06/09 14:00:46;;;;;;;8.88;3.47;;;;;;;;;;5101860;28;20228;-76
2023/06/09 14:03:14;;;;;;;4.13;3.07;;;;;;;;;;5091024;28;20224;-77
2023/06/09 14:05:41;;;;;;;4.25;3.85;;;;;;;;;;5091176;28;20219;-76
2023/06/09 14:08:08;;;;;;;6.18;3.13;;;;;;;;;;5090844;28;20204;-76
2023/06/09 14:10:34;;;;;;;5.97;3.53;;;;;;;;;;5101686;28;20681;-77
2023/06/09 14:13:01;;;;;;;5.67;3.73;;;;;;;;;;5111198;28;20192;-76
2023/06/09 14:15:28;;;;;;;2.90;2.70;;;;;;;;;;5099906;28;20680;-78
2023/06/09 14:17:57;;;;;;;5.70;3.03;;;;;;;;;;5090846;28;20204;-77
2023/06/09 14:20:26;;;;;;;4.53;3.22;;;;;;;;;;5090929;28;20224;-76
2023/06/09 14:22:53;;;;;;;5.03;3.58;;;;;;;;;;5091045;28;20239;-76
2023/06/09 14:25:21;;;;;;;3.08;2.88;;;;;;;;;;5090409;28;20196;-77
2023/06/09 14:27:51;;;;;;;4.45;3.40;;;;;;;;;;5104125;28;20200;-77
2023/06/09 14:30:19;;;;;;;4.87;3.50;;;;;;;;;;5089667;28;20211;-77
2023/06/09 14:32:48;;;;;;;3.97;3.30;;;;;;;;;;5103143;28;20738;-77
2023/06/09 14:35:22;;;;;;;3.97;3.58;;;;;;;;;;5106632;28;20207;-77
2023/06/09 14:37:55;;;;;;;5.65;3.72;;;;;;;;;;5114406;28;20203;-77
2023/06/09 14:40:24;;;;;;;5.00;3.93;;;;;;;;;;5113113;28;20231;-77
2023/06/09 14:42:51;;;;;;;5.75;3.95;;;;;;;;;;5101979;28;20419;-77
2023/06/09 14:45:21;;;;;;;5.50;3.28;;;;;;;;;;5115171;28;20199;-77
2023/06/09 14:47:51;;;;;;;4.03;2.70;;;;;;;;;;5114947;28;20223;-77
2023/06/09 14:50:22;;;;;;;4.20;3.78;;;;;;;;;;5111860;28;20637;-77
2023/06/09 14:52:51;;;;;;;3.75;3.45;;;;;;;;;;5105044;28;21002;-76